Depoe Bay, OR

9:34 PM PST on December 19, 2014 (GMT -0800)
Tillamook | Change Station
CLOSE
Current Station
Airport
Location: Tillamook,
Elevation: 36 ft
Nearby Weather Stations

Elev 36 ft 45.42 °N, 123.81 °W | Updated 19 minutes ago

Rain
Rain
48 °F
Feels Like 48 °F
N
4
Wind Variable Wind from ESE

Today
High -- | Low -- °F
--% Chance of Precip.
Yesterday
High -- | Low -- °F
Precip. -- in
7:49 AM 4:37 PM
Waning Crescent, 4% visible
Pressure 29.90 in
Visibility 10.0 miles
Clouds Scattered Clouds 3500 ft
Overcast 4400 ft
Dew Point 45 °F
Humidity 87%
Rainfall 0.62 in
Snow Depth Not available.
UV 0 out of 12
Pollen .50 out of 12
Air Quality Not available.
Flu Activity Not available.
METAR KTMK 200515Z AUTO 12003KT 10SM -RA SCT035 OVC044 09/07 A2990 RMK AO2 P0001

More Conditions Fewer Conditions

Pressure 29.90 in
Visibility 10.0 miles
Clouds Scattered Clouds 3500 ft
Overcast 4400 ft
Dew Point 45 °F
Humidity 87%
Rainfall 0.62 in
Snow Depth Not available.
UV 0 out of 12
Pollen .50 out of 12
Air Quality Not available.
Flu Activity Not available.
METAR KTMK 200515Z AUTO 12003KT 10SM -RA SCT035 OVC044 09/07 A2990 RMK AO2 P0001

More Conditions Fewer Conditions

10-Day Weather Forecast

Almanac

Astronomy

Dec. 19, 2014 Rise Set
Actual Time
Civil Twilight
Nautical Twilight
Astronomical Twilight
Moon
Length of Visible Light
Length of Day
Tomorrow will be .
, % of the Moon is Illuminated

Today's Extremes

State Highs State Lows

Community

WunderPhotos

Upload Photos

1,779,141 photos uploaded!

WunderBlogs® & News

Nearby

Air Quality

  Air Quality AQ Index Pollutant
Not available.

Snow Depth

Station Depth Elevation

Earthquake Activity

City Distance Mag. Time & Date
Minimum magnitude displayed is 2.5.

Coastal Water Temperatures

Place Temperature

Nearby Weather Stations